CPX411 Details

Departure: Minneapolis-St Paul International Airport (KMSP)
Arrival: Chicago/Rockford International Airport (KRFD)
Route: ZMBRO7 ODI J30 COTON RFD


Current Weather Information
KMSP 251153Z 27008KT 10SM FEW250 15/08 A2978 RMK AO2 SLP081 70003 T01500083 10189 20150 53022
KRFD 251154Z 20007KT 10SM BKN060 21/16 A2990 RMK AO2 SLP121 60000 70051 T02110161 10244 20194 51029